WetterOnline ( https://www.wetteronline.de )

Wetter aktuell Großheubach

Aktuelles Wetter: Michelstadt-Vielbrunn (455m)

6-stündlich | Neueste Meldungen
Ortszeit Temperatur Wetter
Mi, 24.04. 8:00 10.0° C bedeckt
Mi, 24.04. 2:00 11.9° C bedeckt
Di, 23.04. 20:00 16.8° C bedeckt
Di, 23.04. 14:00 16.4° C wolkenlos
Di, 23.04. 8:00 8.8° C wolkig
Di, 23.04. 2:00 10.8° C wolkig
Mo, 22.04. 20:00 19.1° C bedeckt
Mo, 22.04. 14:00 19.6° C wolkenlos
Ortszeit Temperatur Wetter
Mi, 24.04. 10:30 14.4° C wolkig
Mi, 24.04. 10:20 14.4° C wolkig
Mi, 24.04. 10:10 14.3° C leicht bewölkt
Mi, 24.04. 10:00 13.7° C wolkenlos
Mi, 24.04. 9:50 13.7° C wolkenlos
Mi, 24.04. 9:40 13.3° C wolkenlos
Mi, 24.04. 9:30 12.6° C wolkenlos
Mi, 24.04. 9:00 11.4° C wolkenlos
Mi, 24.04. 8:30 10.7° C fast wolkenlos
Mi, 24.04. 8:00 10.0° C bedeckt
Mi, 24.04. 7:30 9.6° C bewölkt
Ortszeit Relative Feuchte Sichtweite
Mi, 24.04. 8:00 76% 45 km
Mi, 24.04. 2:00 70% 45 km
Di, 23.04. 20:00 49% 40 km
Di, 23.04. 14:00 52% 35 km
Di, 23.04. 8:00 67% 50 km
Di, 23.04. 2:00 48% 60 km
Mo, 22.04. 20:00 28% 55 km
Mo, 22.04. 14:00 28% 45 km
Ortszeit Relative Feuchte Sichtweite
Mi, 24.04. 10:30 60% 50 km
Mi, 24.04. 10:20 60% -
Mi, 24.04. 10:10 64% -
Mi, 24.04. 10:00 64% 55 km
Mi, 24.04. 9:50 64% -
Mi, 24.04. 9:40 65% -
Mi, 24.04. 9:30 68% 45 km
Mi, 24.04. 9:00 72% 40 km
Mi, 24.04. 8:30 74% 50 km
Mi, 24.04. 8:00 76% 45 km
Mi, 24.04. 7:30 78% 40 km
Ortszeit Niederschlagsmenge Niederschlagsart
Mi, 24.04. 8:00 0.0 l/m2 in 12 Std. -
Mi, 24.04. 2:00 0.0 l/m2 in 6 Std. -
Di, 23.04. 20:00 0.0 l/m2 in 12 Std. -
Di, 23.04. 14:00 0.0 l/m2 in 6 Std. -
Di, 23.04. 8:00 0.0 l/m2 in 12 Std. -
Di, 23.04. 2:00 0.0 l/m2 in 6 Std. -
Mo, 22.04. 20:00 0.0 l/m2 in 12 Std. -
Mo, 22.04. 14:00 0.0 l/m2 in 6 Std. -
Ortszeit Niederschlagsmenge Niederschlagsart
Mi, 24.04. 10:30 0.0 l/m2 in 1 Std. -
Mi, 24.04. 10:20 keine Meldung -
Mi, 24.04. 10:10 keine Meldung -
Mi, 24.04. 10:00 0.0 l/m2 in 1 Std. -
Mi, 24.04. 9:50 keine Meldung -
Mi, 24.04. 9:40 keine Meldung -
Mi, 24.04. 9:30 0.0 l/m2 in 1 Std. -
Mi, 24.04. 9:00 0.0 l/m2 in 1 Std. -
Mi, 24.04. 8:30 0.0 l/m2 in 1 Std. -
Mi, 24.04. 8:00 0.0 l/m2 in 1 Std. -
Mi, 24.04. 7:30 0.0 l/m2 in 1 Std. -
Ortszeit Stärke Spitze Richtung
km/h Bft. km/h Grad Sektor
Mi, 24.04. 8:00 11 2 30 120° SO
Mi, 24.04. 2:00 18 3 22 120° SO
Di, 23.04. 20:00 11 2 36 110° O
Di, 23.04. 14:00 22 4 43 100° O
Di, 23.04. 8:00 22 4 40 90° O
Di, 23.04. 2:00 25 4 43 90° O
Mo, 22.04. 20:00 26 4 50 80° O
Mo, 22.04. 14:00 30 5 44 90° O
Ortszeit Stärke Spitze Richtung
km/h Bft. km/h Grad Sektor
Mi, 24.04. 10:30 7 2 14 120° SO
Mi, 24.04. 10:20 7 2 - 120° SO
Mi, 24.04. 10:10 11 2 - 110° O
Mi, 24.04. 10:00 11 2 18 120° SO
Mi, 24.04. 9:50 11 2 - 120° SO
Mi, 24.04. 9:40 13 3 - 120° SO
Mi, 24.04. 9:30 13 3 17 130° SO
Mi, 24.04. 9:00 11 2 18 120° SO
Mi, 24.04. 8:30 9 2 17 120° SO
Mi, 24.04. 8:00 11 2 17 120° SO
Mi, 24.04. 7:30 11 2 18 120° SO
Ortszeit Untergrenze Bedeckung Gattung
total tief tief mittel hoch
Mi, 24.04. 8:00 3300 m 8/8 8/8 - - -
Mi, 24.04. 2:00 3600 m 8/8 8/8 - - -
Di, 23.04. 20:00 3600 m 8/8 8/8 - - -
Di, 23.04. 14:00 - 0/8 0/8 - - -
Di, 23.04. 8:00 8400 m 8/8 0/8 - - -
Di, 23.04. 2:00 9000 m 7/8 0/8 - - -
Mo, 22.04. 20:00 6900 m 8/8 8/8 - - -
Mo, 22.04. 14:00 9000 m 0/8 0/8 - - -
Ortszeit Bedeckungsgrad in Achtel und Wolkenuntergrenze
Mi, 24.04. 10:30 7(7800m)
Mi, 24.04. 10:20 7(7800m)
Mi, 24.04. 10:10 5(7800m)
Mi, 24.04. 10:00 2(8100m)
Mi, 24.04. 9:50 keine Wolken
Mi, 24.04. 9:40 keine Wolken
Mi, 24.04. 9:30 keine Wolken
Mi, 24.04. 9:00 keine Wolken
Mi, 24.04. 8:30 1(3300m)
Mi, 24.04. 8:00 8(3300m) 8(4500m)
Mi, 24.04. 7:30 7(4200m) 7(4200m)
Ortszeit Luftdruck NN (hPa) Tendenz (hPa in 3 Std.)
Mi, 24.04. 8:00 1003 + 1,4
Mi, 24.04. 2:00 1000 + 0,3
Di, 23.04. 20:00 998 + 0,1
Di, 23.04. 14:00 999 - 0,3
Di, 23.04. 8:00 1001 - 1,0
Di, 23.04. 2:00 1004 - 1,1
Mo, 22.04. 20:00 1004 - 1,5
Mo, 22.04. 14:00 1008 - 2,2
Ortszeit Luftdruck NN (hPa) Tendenz (hPa in 3 Std.)
Mi, 24.04. 10:30 1003 + 1,3
Mi, 24.04. 10:20 1003 keine Meldung
Mi, 24.04. 10:10 1003 keine Meldung
Mi, 24.04. 10:00 1003 + 1,5
Mi, 24.04. 9:50 1003 keine Meldung
Mi, 24.04. 9:40 1003 keine Meldung
Mi, 24.04. 9:30 1003 + 1,6
Mi, 24.04. 9:00 1003 + 1,6
Mi, 24.04. 8:30 1003 + 1,6
Mi, 24.04. 8:00 1003 + 1,4
Mi, 24.04. 7:30 1002 + 1,2
Ortszeit Schneehöhe (cm)
Mi, 24.04. 8:00 0
Mi, 24.04. 2:00 0
Di, 23.04. 20:00 0
Di, 23.04. 14:00 0
Di, 23.04. 8:00 0
Di, 23.04. 2:00 0
Mo, 22.04. 20:00 0
Mo, 22.04. 14:00 0
Ortszeit Schneehöhe (cm)
Mi, 24.04. 10:30 0
Mi, 24.04. 10:20 0
Mi, 24.04. 10:10 0
Mi, 24.04. 10:00 0
Mi, 24.04. 9:50 0
Mi, 24.04. 9:40 0
Mi, 24.04. 9:30 0
Mi, 24.04. 9:00 0
Mi, 24.04. 8:30 0
Mi, 24.04. 8:00 0
Mi, 24.04. 7:30 0
Link zu dieser Seite / Seite empfehlen

Das Wetter in ...